Time;durP1;ratioP1;P1;durP2;ratioP2;P2;SDS_P1;SDS_P2;PMS_P1;PMS_P2;Temp;Humidity;BMP_temperature;BMP_pressure;BME280_temperature;BME280_humidity;BME280_pressure;Samples;Min_cycle;Max_cycle;Signal;HPM_P1;HPM_P2
2020/12/29 00:01:48;;;;;;;36.33;21.73;;;;;;;;;;4883774;29;20076;-69
2020/12/29 00:04:19;;;;;;;37.28;21.55;;;;;;;;;;4893318;29;20049;-69
2020/12/29 00:06:50;;;;;;;42.42;22.73;;;;;;;;;;4906324;29;20501;-69
2020/12/29 00:09:18;;;;;;;38.10;22.75;;;;;;;;;;4894837;29;20100;-69
2020/12/29 00:11:45;;;;;;;39.45;22.15;;;;;;;;;;4897908;29;20049;-69
2020/12/29 00:14:12;;;;;;;38.45;22.05;;;;;;;;;;4900248;29;20108;-69
2020/12/29 00:16:38;;;;;;;39.92;22.58;;;;;;;;;;4899725;29;20041;-69
2020/12/29 00:19:06;;;;;;;42.92;23.92;;;;;;;;;;4897526;29;20096;-69
2020/12/29 00:21:33;;;;;;;42.88;22.90;;;;;;;;;;4895529;29;20113;-69
2020/12/29 00:23:59;;;;;;;46.33;24.27;;;;;;;;;;4892869;29;20064;-69
2020/12/29 00:26:26;;;;;;;45.50;25.92;;;;;;;;;;4899597;29;20100;-69
2020/12/29 00:28:52;;;;;;;45.60;25.17;;;;;;;;;;4891342;29;20052;-69
2020/12/29 00:31:19;;;;;;;43.83;25.75;;;;;;;;;;4897335;29;20123;-69
2020/12/29 00:33:46;;;;;;;45.83;25.95;;;;;;;;;;4897184;29;20045;-69
2020/12/29 00:36:12;;;;;;;47.58;26.65;;;;;;;;;;4901164;29;20048;-69
2020/12/29 00:38:39;;;;;;;50.03;25.73;;;;;;;;;;4898441;29;20049;-69
2020/12/29 00:41:06;;;;;;;47.05;26.05;;;;;;;;;;4899588;29;20084;-69
2020/12/29 00:43:33;;;;;;;44.92;24.60;;;;;;;;;;4896385;29;20406;-69
2020/12/29 00:46:04;;;;;;;53.95;27.27;;;;;;;;;;4892831;29;20052;-69
2020/12/29 00:48:30;;;;;;;47.35;24.40;;;;;;;;;;4890343;29;20036;-69
2020/12/29 00:50:59;;;;;;;53.50;27.30;;;;;;;;;;4894433;29;20052;-69
2020/12/29 00:53:27;;;;;;;50.55;26.88;;;;;;;;;;4876785;29;20045;-69
2020/12/29 00:55:58;;;;;;;46.53;25.73;;;;;;;;;;4889756;29;20045;-69
2020/12/29 00:58:25;;;;;;;46.63;25.25;;;;;;;;;;4890949;29;20473;-69
2020/12/29 01:00:52;;;;;;;43.95;26.08;;;;;;;;;;4894458;29;20048;-69
2020/12/29 01:03:19;;;;;;;43.08;22.00;;;;;;;;;;4890872;29;20140;-69
2020/12/29 01:05:46;;;;;;;41.90;24.88;;;;;;;;;;4894184;29;20412;-69
2020/12/29 01:08:12;;;;;;;43.65;24.27;;;;;;;;;;4892512;29;20049;-69
2020/12/29 01:10:53;;;;;;;42.28;23.88;;;;;;;;;;4873832;29;20100;-69
2020/12/29 01:13:31;;;;;;;41.13;23.40;;;;;;;;;;4875763;29;20049;-69
2020/12/29 01:15:58;;;;;;;46.13;22.88;;;;;;;;;;4877018;29;20041;-69
2020/12/29 01:18:25;;;;;;;39.80;22.65;;;;;;;;;;4892969;29;20045;-70
2020/12/29 01:20:53;;;;;;;42.10;21.95;;;;;;;;;;4894240;29;20056;-69
2020/12/29 01:23:20;;;;;;;41.03;23.55;;;;;;;;;;4894875;29;20056;-69
2020/12/29 01:25:46;;;;;;;35.72;20.88;;;;;;;;;;4897430;29;20044;-69
2020/12/29 01:28:13;;;;;;;37.97;22.02;;;;;;;;;;4897098;29;20097;-69
2020/12/29 01:30:39;;;;;;;39.47;22.17;;;;;;;;;;4879898;29;20568;-69
2020/12/29 01:33:05;;;;;;;38.55;21.92;;;;;;;;;;4891978;29;20059;-69
2020/12/29 01:35:31;;;;;;;37.63;23.60;;;;;;;;;;4889440;29;20501;-69
2020/12/29 01:37:58;;;;;;;39.35;22.15;;;;;;;;;;4896897;29;20404;-69
2020/12/29 01:40:24;;;;;;;35.53;20.00;;;;;;;;;;4893690;29;20053;-69
2020/12/29 01:42:50;;;;;;;34.97;21.77;;;;;;;;;;4894785;29;20519;-69
2020/12/29 01:45:18;;;;;;;31.73;19.95;;;;;;;;;;4895853;29;20274;-69
2020/12/29 01:47:46;;;;;;;33.40;20.10;;;;;;;;;;4897227;29;20048;-69
2020/12/29 01:50:13;;;;;;;31.90;19.88;;;;;;;;;;4894586;29;20056;-69
2020/12/29 01:52:40;;;;;;;32.15;20.27;;;;;;;;;;4889353;29;20047;-69
2020/12/29 01:55:07;;;;;;;25.52;15.50;;;;;;;;;;4896121;29;20109;-69
2020/12/29 01:57:34;;;;;;;36.55;19.38;;;;;;;;;;4896379;29;20129;-69
2020/12/29 02:00:04;;;;;;;33.92;21.05;;;;;;;;;;4893528;29;20501;-69
2020/12/29 02:02:39;;;;;;;35.93;20.77;;;;;;;;;;4892830;29;20080;-69
2020/12/29 02:05:05;;;;;;;32.90;20.73;;;;;;;;;;4896091;29;20064;-69
2020/12/29 02:07:32;;;;;;;25.35;14.50;;;;;;;;;;4894409;29;20041;-69
2020/12/29 02:09:58;;;;;;;30.05;18.25;;;;;;;;;;4888992;29;20053;-69
2020/12/29 02:12:26;;;;;;;32.15;19.85;;;;;;;;;;4890603;29;20041;-69
2020/12/29 02:14:52;;;;;;;34.55;20.10;;;;;;;;;;4895987;29;20047;-70
2020/12/29 02:17:18;;;;;;;33.78;19.88;;;;;;;;;;4893537;29;20052;-69
2020/12/29 02:19:44;;;;;;;37.03;21.33;;;;;;;;;;4898501;29;20049;-69
2020/12/29 02:22:11;;;;;;;35.83;19.80;;;;;;;;;;4892087;29;20513;-70
2020/12/29 02:24:37;;;;;;;34.53;20.08;;;;;;;;;;4895283;29;20059;-69
2020/12/29 02:27:04;;;;;;;34.60;21.13;;;;;;;;;;4895979;29;20067;-69
2020/12/29 02:29:31;;;;;;;33.40;19.13;;;;;;;;;;4888134;29;20037;-69
2020/12/29 02:31:58;;;;;;;34.70;19.92;;;;;;;;;;4894315;29;20044;-69
2020/12/29 02:34:24;;;;;;;35.55;21.20;;;;;;;;;;4891569;29;20060;-69
2020/12/29 02:36:50;;;;;;;34.78;18.88;;;;;;;;;;4894674;29;20085;-69
2020/12/29 02:39:16;;;;;;;36.10;20.95;;;;;;;;;;4893575;29;20073;-70
2020/12/29 02:41:42;;;;;;;34.90;21.08;;;;;;;;;;4894135;29;20070;-69
2020/12/29 02:44:15;;;;;;;37.20;21.58;;;;;;;;;;4897306;29;20045;-69
2020/12/29 02:46:41;;;;;;;32.90;19.38;;;;;;;;;;4878046;29;20052;-69
2020/12/29 02:49:08;;;;;;;33.35;21.20;;;;;;;;;;4894814;29;20045;-69
2020/12/29 02:51:34;;;;;;;39.20;20.90;;;;;;;;;;4894583;29;20496;-69
2020/12/29 02:54:00;;;;;;;35.13;20.67;;;;;;;;;;4894206;29;20131;-69
2020/12/29 02:56:26;;;;;;;36.30;20.33;;;;;;;;;;4895880;29;20093;-69
2020/12/29 02:58:52;;;;;;;37.83;22.15;;;;;;;;;;4893920;29;20044;-69
2020/12/29 03:01:18;;;;;;;40.08;21.95;;;;;;;;;;4890259;29;20541;-69
2020/12/29 03:03:45;;;;;;;38.83;22.40;;;;;;;;;;4894647;29;20056;-69
2020/12/29 03:06:11;;;;;;;41.78;22.10;;;;;;;;;;4895630;29;20063;-69
2020/12/29 03:08:37;;;;;;;40.97;24.08;;;;;;;;;;4895821;29;20047;-69
2020/12/29 03:11:04;;;;;;;39.78;23.02;;;;;;;;;;4893157;29;20041;-69
2020/12/29 03:13:30;;;;;;;38.90;21.80;;;;;;;;;;4894013;29;20101;-69
2020/12/29 03:15:56;;;;;;;40.75;22.35;;;;;;;;;;4894445;29;20036;-69
2020/12/29 03:18:22;;;;;;;41.20;23.25;;;;;;;;;;4890752;29;20078;-69
2020/12/29 03:20:48;;;;;;;39.60;21.45;;;;;;;;;;4893388;29;20060;-70
2020/12/29 03:23:14;;;;;;;43.45;23.85;;;;;;;;;;4900951;29;20060;-69
2020/12/29 03:25:40;;;;;;;47.17;23.48;;;;;;;;;;4895454;29;20052;-70
2020/12/29 03:28:06;;;;;;;43.95;23.02;;;;;;;;;;4895497;29;20044;-69
2020/12/29 03:30:33;;;;;;;44.75;24.10;;;;;;;;;;4893055;29;20127;-69
2020/12/29 03:32:59;;;;;;;42.38;23.73;;;;;;;;;;4894277;29;20048;-69
2020/12/29 03:35:25;;;;;;;45.40;24.92;;;;;;;;;;4894914;29;20051;-69
2020/12/29 03:37:51;;;;;;;48.65;26.20;;;;;;;;;;4892787;29;20068;-69
2020/12/29 03:40:17;;;;;;;50.22;26.15;;;;;;;;;;4892255;29;20108;-69
2020/12/29 03:42:43;;;;;;;47.45;26.08;;;;;;;;;;4892774;29;20057;-69
2020/12/29 03:45:09;;;;;;;46.63;25.90;;;;;;;;;;4877526;29;20100;-69
2020/12/29 03:47:36;;;;;;;47.95;26.77;;;;;;;;;;4895920;29;20059;-69
2020/12/29 03:50:02;;;;;;;47.45;24.25;;;;;;;;;;4877916;29;20146;-69
2020/12/29 03:52:28;;;;;;;47.45;25.80;;;;;;;;;;4879555;29;20108;-69
2020/12/29 03:54:54;;;;;;;54.80;26.67;;;;;;;;;;4892911;29;20053;-69
2020/12/29 03:57:20;;;;;;;50.65;27.50;;;;;;;;;;4891786;29;20057;-68
2020/12/29 03:59:46;;;;;;;52.88;26.80;;;;;;;;;;4893838;29;20057;-69
2020/12/29 04:02:13;;;;;;;49.28;25.10;;;;;;;;;;4896667;29;20497;-69
2020/12/29 04:04:39;;;;;;;50.67;27.33;;;;;;;;;;4895497;29;20132;-69
2020/12/29 04:07:05;;;;;;;57.58;27.20;;;;;;;;;;4893991;29;20052;-69
2020/12/29 04:09:31;;;;;;;53.03;27.92;;;;;;;;;;4889115;29;20044;-68
2020/12/29 04:11:57;;;;;;;46.35;25.38;;;;;;;;;;4896091;29;20044;-68
2020/12/29 04:14:23;;;;;;;52.45;26.10;;;;;;;;;;4896122;29;20045;-68
2020/12/29 04:16:50;;;;;;;52.90;27.02;;;;;;;;;;4896608;29;20048;-69
2020/12/29 04:19:16;;;;;;;60.10;28.63;;;;;;;;;;4895813;29;20104;-69
2020/12/29 04:21:42;;;;;;;54.40;27.60;;;;;;;;;;4888169;29;20057;-69
2020/12/29 04:24:08;;;;;;;52.47;24.90;;;;;;;;;;4875653;29;20045;-69
2020/12/29 04:26:34;;;;;;;48.95;25.65;;;;;;;;;;4895280;29;20058;-69
2020/12/29 04:29:00;;;;;;;51.67;27.13;;;;;;;;;;4896270;29;20040;-69
2020/12/29 04:31:26;;;;;;;54.33;26.75;;;;;;;;;;4897325;29;20258;-69
2020/12/29 04:33:52;;;;;;;51.75;25.63;;;;;;;;;;4904059;29;20044;-69
2020/12/29 04:36:18;;;;;;;51.90;27.58;;;;;;;;;;4897845;29;20520;-69
2020/12/29 04:38:45;;;;;;;63.65;31.50;;;;;;;;;;4899808;29;20068;-68
2020/12/29 04:41:11;;;;;;;61.28;29.38;;;;;;;;;;4893171;29;20065;-68
2020/12/29 04:43:37;;;;;;;57.60;29.67;;;;;;;;;;4898825;29;20048;-68
2020/12/29 04:46:03;;;;;;;57.88;30.52;;;;;;;;;;4902111;29;20112;-69
2020/12/29 04:48:30;;;;;;;58.03;28.83;;;;;;;;;;4893555;29;20037;-69
2020/12/29 04:51:00;;;;;;;61.75;28.30;;;;;;;;;;4894022;29;20558;-69
2020/12/29 04:53:29;;;;;;;58.17;27.60;;;;;;;;;;4898938;29;20041;-68
2020/12/29 04:55:57;;;;;;;55.95;29.33;;;;;;;;;;4897528;29;20076;-69
2020/12/29 04:58:23;;;;;;;59.55;28.73;;;;;;;;;;4890880;29;20073;-69
2020/12/29 05:00:50;;;;;;;59.75;26.88;;;;;;;;;;4890094;29;20080;-69
2020/12/29 05:03:16;;;;;;;58.93;28.00;;;;;;;;;;4898584;29;20509;-69
2020/12/29 05:05:43;;;;;;;59.83;29.52;;;;;;;;;;4899203;29;20308;-69
2020/12/29 05:08:09;;;;;;;57.17;27.90;;;;;;;;;;4892444;29;20051;-69
2020/12/29 05:10:44;;;;;;;58.97;28.42;;;;;;;;;;4890212;29;20044;-69
2020/12/29 05:13:11;;;;;;;56.67;28.00;;;;;;;;;;4893669;29;20485;-69
2020/12/29 05:15:37;;;;;;;57.53;29.45;;;;;;;;;;4896961;29;20408;-69
2020/12/29 05:18:03;;;;;;;60.67;28.52;;;;;;;;;;4897740;29;20055;-69
2020/12/29 05:20:35;;;;;;;61.83;29.20;;;;;;;;;;4885042;29;20139;-69
2020/12/29 05:23:01;;;;;;;60.63;28.73;;;;;;;;;;4892332;29;20044;-69
2020/12/29 05:25:27;;;;;;;64.07;30.73;;;;;;;;;;4894701;29;20426;-69
2020/12/29 05:27:54;;;;;;;55.85;27.23;;;;;;;;;;4890117;29;20045;-69
2020/12/29 05:30:21;;;;;;;48.42;22.70;;;;;;;;;;4888862;29;20048;-69
2020/12/29 05:32:47;;;;;;;53.85;25.17;;;;;;;;;;4891315;29;20079;-69
2020/12/29 05:35:14;;;;;;;51.00;26.90;;;;;;;;;;4892552;29;20108;-69
2020/12/29 05:37:40;;;;;;;51.70;25.95;;;;;;;;;;4894086;29;20063;-69
2020/12/29 05:40:26;;;;;;;57.80;29.10;;;;;;;;;;4892275;29;20052;-69
2020/12/29 05:42:53;;;;;;;54.42;27.00;;;;;;;;;;4892635;29;20297;-69
2020/12/29 05:45:20;;;;;;;50.20;24.88;;;;;;;;;;4892245;29;20104;-69
2020/12/29 05:47:52;;;;;;;52.17;26.65;;;;;;;;;;4892144;29;20055;-69
2020/12/29 05:50:19;;;;;;;49.70;25.58;;;;;;;;;;4873985;29;20097;-69
2020/12/29 05:52:46;;;;;;;53.78;27.23;;;;;;;;;;4888432;29;20052;-69
2020/12/29 05:55:13;;;;;;;59.88;27.67;;;;;;;;;;4891424;29;20779;-69
2020/12/29 05:57:39;;;;;;;61.78;28.42;;;;;;;;;;4900170;29;20064;-69
2020/12/29 06:00:05;;;;;;;57.08;28.95;;;;;;;;;;4889208;29;20045;-69
2020/12/29 06:02:32;;;;;;;57.90;29.30;;;;;;;;;;4893587;29;20055;-69
2020/12/29 06:04:59;;;;;;;54.05;27.90;;;;;;;;;;4893943;29;20071;-69
2020/12/29 06:07:25;;;;;;;61.83;28.17;;;;;;;;;;4894605;29;20116;-69
2020/12/29 06:09:54;;;;;;;57.23;28.47;;;;;;;;;;4888197;29;20044;-69
2020/12/29 06:12:33;;;;;;;57.45;28.73;;;;;;;;;;4893058;29;20350;-69
2020/12/29 06:15:01;;;;;;;51.55;27.85;;;;;;;;;;4878686;29;20120;-69
2020/12/29 06:17:32;;;;;;;54.78;27.90;;;;;;;;;;4896573;29;20043;-69
2020/12/29 06:20:03;;;;;;;50.60;27.83;;;;;;;;;;4890407;29;20064;-69
2020/12/29 06:22:31;;;;;;;46.60;26.77;;;;;;;;;;4890288;29;20493;-68
2020/12/29 06:24:59;;;;;;;52.42;27.17;;;;;;;;;;4896780;29;20148;-68
2020/12/29 06:27:29;;;;;;;49.05;25.98;;;;;;;;;;4897118;29;20119;-68
2020/12/29 06:29:56;;;;;;;47.42;25.42;;;;;;;;;;4887943;29;20071;-69
2020/12/29 06:32:25;;;;;;;37.72;19.83;;;;;;;;;;4895431;29;20037;-69
2020/12/29 06:34:51;;;;;;;51.72;27.52;;;;;;;;;;4893637;29;20553;-69
2020/12/29 06:37:24;;;;;;;45.88;25.00;;;;;;;;;;4888737;29;20052;-69
2020/12/29 06:39:57;;;;;;;43.28;23.90;;;;;;;;;;4893010;29;20119;-68
2020/12/29 06:42:23;;;;;;;43.70;25.67;;;;;;;;;;4891992;29;20057;-69
2020/12/29 06:44:56;;;;;;;44.90;25.20;;;;;;;;;;4887877;29;20048;-69
2020/12/29 06:47:24;;;;;;;46.67;25.05;;;;;;;;;;4888760;29;20044;-68
2020/12/29 06:49:51;;;;;;;45.60;25.60;;;;;;;;;;4887473;29;20571;-68
2020/12/29 06:52:17;;;;;;;47.70;26.20;;;;;;;;;;4894844;29;20122;-69
2020/12/29 06:54:44;;;;;;;45.73;24.77;;;;;;;;;;4895343;29;20453;-68
2020/12/29 06:57:10;;;;;;;47.40;24.43;;;;;;;;;;4895849;29;20446;-68
2020/12/29 06:59:40;;;;;;;45.20;25.00;;;;;;;;;;4887293;29;20142;-68
2020/12/29 07:02:14;;;;;;;54.28;24.88;;;;;;;;;;4890134;29;20183;-69
2020/12/29 07:04:46;;;;;;;48.72;24.90;;;;;;;;;;4889912;29;20108;-68
2020/12/29 07:07:42;;;;;;;42.75;23.88;;;;;;;;;;4894427;29;20442;-69
2020/12/29 07:10:12;;;;;;;47.03;23.00;;;;;;;;;;4875801;29;20160;-69
2020/12/29 07:12:42;;;;;;;53.15;24.60;;;;;;;;;;4896134;29;20052;-68
2020/12/29 07:15:08;;;;;;;48.47;24.63;;;;;;;;;;4893581;29;20063;-68
2020/12/29 07:17:35;;;;;;;48.42;25.25;;;;;;;;;;4894847;29;20820;-68
2020/12/29 07:20:11;;;;;;;47.08;24.17;;;;;;;;;;4889369;29;20049;-69
2020/12/29 07:22:37;;;;;;;48.22;25.95;;;;;;;;;;4890114;29;20108;-68
2020/12/29 07:25:03;;;;;;;46.00;25.17;;;;;;;;;;4891392;29;20060;-68
2020/12/29 07:27:29;;;;;;;46.92;24.85;;;;;;;;;;4886510;29;20045;-68
2020/12/29 07:29:58;;;;;;;47.17;24.67;;;;;;;;;;4890285;29;20131;-68
2020/12/29 07:32:25;;;;;;;50.03;25.27;;;;;;;;;;4886728;29;20045;-68
2020/12/29 07:34:52;;;;;;;51.80;25.27;;;;;;;;;;4889427;29;20053;-69
2020/12/29 07:37:19;;;;;;;38.57;18.50;;;;;;;;;;4893431;29;20036;-69
2020/12/29 07:39:45;;;;;;;48.42;24.33;;;;;;;;;;4891519;29;20705;-68
2020/12/29 07:42:15;;;;;;;45.88;23.67;;;;;;;;;;4888908;29;20041;-68
2020/12/29 07:44:42;;;;;;;49.28;24.33;;;;;;;;;;4891086;29;20580;-69
2020/12/29 07:47:08;;;;;;;54.80;25.30;;;;;;;;;;4895327;29;20044;-68
2020/12/29 07:49:34;;;;;;;52.67;24.65;;;;;;;;;;4894077;29;20049;-68
2020/12/29 07:52:01;;;;;;;50.35;24.05;;;;;;;;;;4875715;29;20112;-70
2020/12/29 07:54:27;;;;;;;46.30;23.92;;;;;;;;;;4887623;29;20044;-68
2020/12/29 07:56:54;;;;;;;50.40;24.27;;;;;;;;;;4890622;29;20072;-68
2020/12/29 07:59:21;;;;;;;49.88;24.80;;;;;;;;;;4893471;29;20040;-68
2020/12/29 08:01:52;;;;;;;47.70;24.92;;;;;;;;;;4885938;29;20051;-69
2020/12/29 08:04:24;;;;;;;50.83;26.17;;;;;;;;;;4896643;29;20509;-68
2020/12/29 08:06:50;;;;;;;51.88;24.60;;;;;;;;;;4899231;29;20048;-68
2020/12/29 08:09:16;;;;;;;55.40;25.95;;;;;;;;;;4897363;29;20045;-69
2020/12/29 08:11:42;;;;;;;53.90;25.00;;;;;;;;;;4895715;29;20041;-69
2020/12/29 08:14:09;;;;;;;51.83;26.10;;;;;;;;;;4895015;29;20049;-69
2020/12/29 08:16:35;;;;;;;58.00;27.10;;;;;;;;;;4892906;29;20800;-69
2020/12/29 08:19:02;;;;;;;53.63;27.25;;;;;;;;;;4896620;29;20412;-69
2020/12/29 08:21:32;;;;;;;48.22;25.80;;;;;;;;;;4893624;29;20460;-69
2020/12/29 08:24:00;;;;;;;53.50;26.42;;;;;;;;;;4894102;29;20048;-69
2020/12/29 08:26:26;;;;;;;58.70;25.85;;;;;;;;;;4893860;29;20045;-69
2020/12/29 08:28:52;;;;;;;53.00;25.48;;;;;;;;;;4893837;29;20069;-69
2020/12/29 08:31:19;;;;;;;50.60;26.77;;;;;;;;;;4885271;29;20093;-69
2020/12/29 08:33:49;;;;;;;55.47;27.30;;;;;;;;;;4892703;29;20045;-69
2020/12/29 08:36:25;;;;;;;51.28;27.38;;;;;;;;;;4889519;29;20052;-69
2020/12/29 08:39:02;;;;;;;51.35;26.80;;;;;;;;;;4896429;29;20092;-69
2020/12/29 08:41:29;;;;;;;55.75;26.58;;;;;;;;;;4895228;29;20049;-69
2020/12/29 08:44:00;;;;;;;51.88;26.80;;;;;;;;;;4894201;29;20036;-69
2020/12/29 08:46:26;;;;;;;52.55;26.85;;;;;;;;;;4896424;29;20089;-69
2020/12/29 08:48:59;;;;;;;54.85;27.48;;;;;;;;;;4895408;29;20088;-69
2020/12/29 08:51:27;;;;;;;58.20;26.65;;;;;;;;;;4894140;29;20396;-69
2020/12/29 08:53:54;;;;;;;49.53;25.80;;;;;;;;;;4893499;29;20032;-69
2020/12/29 08:56:23;;;;;;;61.20;28.10;;;;;;;;;;4895269;29;20449;-69
2020/12/29 08:58:49;;;;;;;59.40;28.15;;;;;;;;;;4894190;29;20057;-69
2020/12/29 09:01:48;;;;;;;58.13;28.05;;;;;;;;;;4890812;29;20045;-69
2020/12/29 09:04:21;;;;;;;57.40;27.07;;;;;;;;;;4847581;29;20048;-69
2020/12/29 09:06:54;;;;;;;55.60;28.20;;;;;;;;;;4896151;29;20041;-69
2020/12/29 09:09:20;;;;;;;56.45;27.40;;;;;;;;;;4894842;29;20096;-69
2020/12/29 09:11:46;;;;;;;56.50;27.17;;;;;;;;;;4891804;29;20127;-69
2020/12/29 09:14:12;;;;;;;66.72;30.15;;;;;;;;;;4892035;29;20052;-69
2020/12/29 09:16:38;;;;;;;59.67;27.98;;;;;;;;;;4890846;29;20045;-69
2020/12/29 09:19:14;;;;;;;60.33;27.38;;;;;;;;;;4897675;29;20139;-69
2020/12/29 09:21:41;;;;;;;64.93;28.88;;;;;;;;;;4892919;29;20080;-69
2020/12/29 09:24:07;;;;;;;55.03;26.77;;;;;;;;;;4897898;29;20088;-69
2020/12/29 09:26:46;;;;;;;63.42;27.92;;;;;;;;;;4894306;29;20062;-68
2020/12/29 09:29:18;;;;;;;58.33;27.30;;;;;;;;;;4895892;29;20044;-69
2020/12/29 09:31:51;;;;;;;62.50;28.33;;;;;;;;;;4892536;29;20072;-69
2020/12/29 09:34:17;;;;;;;60.10;27.95;;;;;;;;;;4892637;29;20501;-69
2020/12/29 09:36:43;;;;;;;66.32;28.88;;;;;;;;;;4891066;29;20084;-69
2020/12/29 09:39:09;;;;;;;59.28;27.48;;;;;;;;;;4895619;29;20037;-69
2020/12/29 09:41:35;;;;;;;59.33;27.40;;;;;;;;;;4894870;29;20058;-69
2020/12/29 09:44:01;;;;;;;64.18;27.08;;;;;;;;;;4896031;29;20032;-69
2020/12/29 09:46:38;;;;;;;65.40;28.73;;;;;;;;;;4891271;29;20072;-69
2020/12/29 09:49:04;;;;;;;56.90;27.42;;;;;;;;;;4896849;29;20049;-68
2020/12/29 09:51:31;;;;;;;57.78;27.45;;;;;;;;;;4891074;29;20104;-69
2020/12/29 09:53:57;;;;;;;67.45;28.00;;;;;;;;;;4894910;29;20591;-68
2020/12/29 09:56:23;;;;;;;62.72;28.13;;;;;;;;;;4896702;29;20496;-68
2020/12/29 09:58:50;;;;;;;56.45;26.75;;;;;;;;;;4892813;29;20056;-68
2020/12/29 10:01:16;;;;;;;60.50;27.15;;;;;;;;;;4888256;29;20040;-69
2020/12/29 10:03:42;;;;;;;54.13;26.23;;;;;;;;;;4888810;29;20080;-71
2020/12/29 10:06:08;;;;;;;52.70;25.60;;;;;;;;;;4890166;29;20048;-69
2020/12/29 10:08:36;;;;;;;55.92;25.60;;;;;;;;;;4891839;29;20068;-69
2020/12/29 10:11:03;;;;;;;55.78;26.60;;;;;;;;;;4892612;29;20565;-68
2020/12/29 10:13:29;;;;;;;53.42;26.30;;;;;;;;;;4892360;29;20073;-68
2020/12/29 10:15:55;;;;;;;50.20;24.42;;;;;;;;;;4890403;29;20072;-69
2020/12/29 10:18:21;;;;;;;49.65;23.58;;;;;;;;;;4890614;29;20536;-68
2020/12/29 10:20:50;;;;;;;52.10;23.60;;;;;;;;;;4889570;29;20060;-69
2020/12/29 10:23:16;;;;;;;46.15;22.35;;;;;;;;;;4891539;29;20041;-69
2020/12/29 10:25:42;;;;;;;50.65;23.02;;;;;;;;;;4887061;29;20060;-69
2020/12/29 10:28:08;;;;;;;49.17;23.02;;;;;;;;;;4895880;29;20052;-68
2020/12/29 10:30:34;;;;;;;49.08;23.50;;;;;;;;;;4891157;29;20432;-69
2020/12/29 10:33:01;;;;;;;46.40;21.98;;;;;;;;;;4895914;29;20056;-69
2020/12/29 10:35:28;;;;;;;;;;;;;;;;;;4888724;29;20052;-69
2020/12/29 10:37:54;;;;;;;41.90;20.08;;;;;;;;;;4895308;29;19923;-69
2020/12/29 10:40:20;;;;;;;35.97;18.27;;;;;;;;;;4894572;29;20065;-69
2020/12/29 10:42:47;;;;;;;43.42;21.70;;;;;;;;;;4896874;29;20040;-69
2020/12/29 10:45:13;;;;;;;41.65;20.38;;;;;;;;;;4890457;29;20048;-69
2020/12/29 10:47:39;;;;;;;47.47;21.52;;;;;;;;;;4878631;29;20382;-68
2020/12/29 10:50:05;;;;;;;39.92;19.70;;;;;;;;;;4893384;29;20044;-69
2020/12/29 10:52:31;;;;;;;41.33;19.73;;;;;;;;;;4896064;29;20048;-68
2020/12/29 10:54:57;;;;;;;37.80;20.38;;;;;;;;;;4894699;29;20047;-69
2020/12/29 10:57:23;;;;;;;33.67;18.13;;;;;;;;;;4894299;29;20052;-68
2020/12/29 10:59:50;;;;;;;32.55;18.17;;;;;;;;;;4889177;29;20409;-69
2020/12/29 11:02:16;;;;;;;38.97;19.35;;;;;;;;;;4892335;29;20493;-69
2020/12/29 11:04:42;;;;;;;32.58;19.30;;;;;;;;;;4893269;29;20045;-69
2020/12/29 11:07:08;;;;;;;31.52;17.20;;;;;;;;;;4893357;29;20766;-69
2020/12/29 11:09:34;;;;;;;33.63;19.33;;;;;;;;;;4891463;29;20116;-69
2020/12/29 11:12:00;;;;;;;34.30;20.60;;;;;;;;;;4895525;29;20505;-69
2020/12/29 11:14:27;;;;;;;34.58;19.83;;;;;;;;;;4895205;29;20072;-69
2020/12/29 11:16:53;;;;;;;33.85;20.13;;;;;;;;;;4894694;29;20040;-69
2020/12/29 11:19:20;;;;;;;34.00;19.33;;;;;;;;;;4889486;29;20053;-69
2020/12/29 11:21:46;;;;;;;37.00;20.50;;;;;;;;;;4891709;29;20134;-68
2020/12/29 11:24:14;;;;;;;37.47;20.52;;;;;;;;;;4894692;29;20045;-69
2020/12/29 11:26:40;;;;;;;29.42;16.50;;;;;;;;;;4878748;29;20060;-68
2020/12/29 11:29:06;;;;;;;35.65;20.38;;;;;;;;;;4893141;29;20037;-68
2020/12/29 11:31:32;;;;;;;34.33;19.83;;;;;;;;;;4888107;29;20052;-68
2020/12/29 11:33:58;;;;;;;36.00;19.67;;;;;;;;;;4893715;29;20077;-68
2020/12/29 11:36:25;;;;;;;35.65;20.20;;;;;;;;;;4895663;29;20044;-69
2020/12/29 11:38:51;;;;;;;31.13;20.08;;;;;;;;;;4888725;29;20092;-69
2020/12/29 11:41:17;;;;;;;33.75;20.67;;;;;;;;;;4887111;29;20052;-69
2020/12/29 11:43:43;;;;;;;33.90;20.42;;;;;;;;;;4893462;29;20053;-68
2020/12/29 11:46:09;;;;;;;32.97;19.45;;;;;;;;;;4890523;29;20467;-69
2020/12/29 11:48:36;;;;;;;31.10;19.23;;;;;;;;;;4894279;29;20048;-69
2020/12/29 11:51:03;;;;;;;35.10;20.13;;;;;;;;;;4887425;29;20428;-68
2020/12/29 11:53:29;;;;;;;31.90;20.25;;;;;;;;;;4884213;29;20057;-69
2020/12/29 11:55:55;;;;;;;31.88;20.00;;;;;;;;;;4887342;29;20063;-69
2020/12/29 11:58:21;;;;;;;39.55;21.40;;;;;;;;;;4890651;29;20059;-69
2020/12/29 12:00:47;;;;;;;34.60;20.73;;;;;;;;;;4891150;29;20044;-69
2020/12/29 12:03:22;;;;;;;36.00;21.42;;;;;;;;;;4894452;29;20036;-68
2020/12/29 12:05:48;;;;;;;33.45;20.55;;;;;;;;;;4892699;29;20049;-68
2020/12/29 12:08:15;;;;;;;36.00;20.25;;;;;;;;;;4893928;29;20040;-69
2020/12/29 12:10:41;;;;;;;33.85;20.65;;;;;;;;;;4887241;29;20072;-69
2020/12/29 12:13:07;;;;;;;33.42;19.75;;;;;;;;;;4893583;29;20517;-69
2020/12/29 12:15:50;;;;;;;33.63;21.35;;;;;;;;;;4889004;29;20064;-68
2020/12/29 12:18:34;;;;;;;34.97;20.30;;;;;;;;;;4887740;29;20497;-70
2020/12/29 12:21:01;;;;;;;35.38;21.15;;;;;;;;;;4889334;29;20225;-69
2020/12/29 12:23:28;;;;;;;35.33;20.35;;;;;;;;;;4891920;29;20129;-70
2020/12/29 12:25:54;;;;;;;35.92;20.15;;;;;;;;;;4886977;29;20045;-70
2020/12/29 12:28:22;;;;;;;33.47;20.20;;;;;;;;;;4887611;29;20048;-69
2020/12/29 12:30:48;;;;;;;34.85;20.95;;;;;;;;;;4886042;29;20188;-70
2020/12/29 12:33:14;;;;;;;32.97;20.30;;;;;;;;;;4889602;29;20044;-69
2020/12/29 12:35:41;;;;;;;34.35;20.67;;;;;;;;;;4892012;29;20508;-70
2020/12/29 12:38:07;;;;;;;32.40;20.10;;;;;;;;;;4890285;29;20041;-70
2020/12/29 12:40:33;;;;;;;35.40;21.52;;;;;;;;;;4887414;29;20494;-69
2020/12/29 12:42:59;;;;;;;37.22;20.83;;;;;;;;;;4892874;29;20048;-69
2020/12/29 12:45:25;;;;;;;31.75;19.10;;;;;;;;;;4892392;29;20053;-70
2020/12/29 12:47:53;;;;;;;30.17;19.50;;;;;;;;;;4885355;29;20041;-70
2020/12/29 12:50:21;;;;;;;37.85;22.52;;;;;;;;;;4884306;29;20078;-70
2020/12/29 12:52:47;;;;;;;39.70;22.48;;;;;;;;;;4893552;29;20143;-69
2020/12/29 12:55:13;;;;;;;36.30;20.85;;;;;;;;;;4886579;29;20092;-70
2020/12/29 12:57:39;;;;;;;37.78;22.60;;;;;;;;;;4892673;29;20055;-70
2020/12/29 13:00:05;;;;;;;36.90;22.48;;;;;;;;;;4892133;29;20067;-70
2020/12/29 13:02:31;;;;;;;34.47;22.15;;;;;;;;;;4891853;29;20052;-69
2020/12/29 13:04:57;;;;;;;31.63;19.45;;;;;;;;;;4885111;29;20463;-71
2020/12/29 13:07:24;;;;;;;36.38;21.15;;;;;;;;;;4894574;29;20059;-70
2020/12/29 13:09:50;;;;;;;33.95;22.10;;;;;;;;;;4890853;29;20135;-69
2020/12/29 13:12:16;;;;;;;32.55;20.98;;;;;;;;;;4894548;29;20048;-69
2020/12/29 13:14:43;;;;;;;33.20;20.58;;;;;;;;;;4894899;29;20454;-69
2020/12/29 13:17:09;;;;;;;32.28;21.67;;;;;;;;;;4893766;29;20111;-69
2020/12/29 13:19:35;;;;;;;33.17;19.05;;;;;;;;;;4888780;29;20135;-68
2020/12/29 13:22:01;;;;;;;31.98;19.98;;;;;;;;;;4891495;29;20064;-70
2020/12/29 13:24:27;;;;;;;29.83;19.80;;;;;;;;;;4888469;29;20617;-69
2020/12/29 13:26:54;;;;;;;31.40;20.30;;;;;;;;;;4893919;29;20123;-69
2020/12/29 13:29:19;;;;;;;39.60;22.70;;;;;;;;;;4890162;29;20095;-69
2020/12/29 13:31:46;;;;;;;37.70;22.27;;;;;;;;;;4887654;29;20136;-69
2020/12/29 13:34:12;;;;;;;38.13;21.58;;;;;;;;;;4890634;29;20077;-69
2020/12/29 13:36:41;;;;;;;40.88;22.35;;;;;;;;;;4889993;29;20048;-69
2020/12/29 13:39:23;;;;;;;34.95;21.38;;;;;;;;;;4894111;29;20475;-70
2020/12/29 13:41:49;;;;;;;35.08;20.90;;;;;;;;;;4887162;29;20494;-69
2020/12/29 13:44:15;;;;;;;36.33;21.23;;;;;;;;;;4894545;29;20061;-69
2020/12/29 13:46:41;;;;;;;39.13;22.52;;;;;;;;;;4884285;29;20601;-69
2020/12/29 13:49:07;;;;;;;40.70;22.15;;;;;;;;;;4888449;29;20068;-70
2020/12/29 13:51:33;;;;;;;44.17;24.67;;;;;;;;;;4892067;29;20071;-69
2020/12/29 13:53:59;;;;;;;43.28;23.73;;;;;;;;;;4896034;29;20100;-69
2020/12/29 13:56:30;;;;;;;38.72;23.38;;;;;;;;;;4890289;29;20048;-69
2020/12/29 13:58:56;;;;;;;37.50;22.90;;;;;;;;;;4886826;29;20037;-69
2020/12/29 14:01:22;;;;;;;41.95;23.23;;;;;;;;;;4886732;29;20049;-69
2020/12/29 14:03:48;;;;;;;43.15;23.38;;;;;;;;;;4892629;29;20052;-70
2020/12/29 14:06:14;;;;;;;39.42;24.42;;;;;;;;;;4889888;29;20036;-69
2020/12/29 14:08:40;;;;;;;43.03;24.58;;;;;;;;;;4891794;29;20052;-69
2020/12/29 14:11:08;;;;;;;44.60;25.08;;;;;;;;;;4890325;29;20131;-69
2020/12/29 14:13:34;;;;;;;43.38;25.00;;;;;;;;;;4894950;29;20096;-69
2020/12/29 14:16:01;;;;;;;45.50;25.15;;;;;;;;;;4886613;29;20055;-70
2020/12/29 14:18:27;;;;;;;43.22;23.80;;;;;;;;;;4891454;29;20041;-69
2020/12/29 14:20:54;;;;;;;44.92;26.42;;;;;;;;;;4889654;29;20616;-69